sensor_id;sensor_type;location;lat;lon;timestamp;P1;durP1;ratioP1;P2;durP2;ratioP2
85011;SDS011;75336;42.142;21.732;2024-03-02T00:01:25;11.75;;;9.38;;
85011;SDS011;75336;42.142;21.732;2024-03-02T00:03:52;14.88;;;10.30;;
85011;SDS011;75336;42.142;21.732;2024-03-02T00:06:20;16.63;;;11.60;;
85011;SDS011;75336;42.142;21.732;2024-03-02T00:08:49;13.60;;;10.52;;
85011;SDS011;75336;42.142;21.732;2024-03-02T00:11:17;18.52;;;13.65;;
85011;SDS011;75336;42.142;21.732;2024-03-02T00:13:45;18.02;;;13.40;;
85011;SDS011;75336;42.142;21.732;2024-03-02T00:16:12;17.23;;;12.52;;
85011;SDS011;75336;42.142;21.732;2024-03-02T00:18:38;16.67;;;12.93;;
85011;SDS011;75336;42.142;21.732;2024-03-02T00:21:05;19.30;;;14.73;;
85011;SDS011;75336;42.142;21.732;2024-03-02T00:23:36;18.27;;;13.60;;
85011;SDS011;75336;42.142;21.732;2024-03-02T00:28:30;17.65;;;11.82;;
85011;SDS011;75336;42.142;21.732;2024-03-02T00:33:33;14.52;;;10.88;;
85011;SDS011;75336;42.142;21.732;2024-03-02T00:36:00;18.08;;;12.60;;
85011;SDS011;75336;42.142;21.732;2024-03-02T00:38:29;15.52;;;11.80;;
85011;SDS011;75336;42.142;21.732;2024-03-02T00:40:57;14.98;;;11.57;;
85011;SDS011;75336;42.142;21.732;2024-03-02T00:45:53;14.98;;;10.73;;
85011;SDS011;75336;42.142;21.732;2024-03-02T00:48:19;15.60;;;11.80;;
85011;SDS011;75336;42.142;21.732;2024-03-02T00:50:45;18.65;;;12.88;;
85011;SDS011;75336;42.142;21.732;2024-03-02T00:53:14;20.75;;;13.13;;
85011;SDS011;75336;42.142;21.732;2024-03-02T00:55:43;18.58;;;13.27;;
85011;SDS011;75336;42.142;21.732;2024-03-02T00:58:12;16.27;;;13.05;;
85011;SDS011;75336;42.142;21.732;2024-03-02T01:00:38;14.15;;;10.18;;
85011;SDS011;75336;42.142;21.732;2024-03-02T01:03:04;13.25;;;9.63;;
85011;SDS011;75336;42.142;21.732;2024-03-02T01:05:30;11.77;;;8.98;;
85011;SDS011;75336;42.142;21.732;2024-03-02T01:07:56;12.85;;;9.73;;
85011;SDS011;75336;42.142;21.732;2024-03-02T01:10:22;12.30;;;8.88;;
85011;SDS011;75336;42.142;21.732;2024-03-02T01:12:50;12.38;;;8.93;;
85011;SDS011;75336;42.142;21.732;2024-03-02T01:15:16;12.68;;;10.07;;
85011;SDS011;75336;42.142;21.732;2024-03-02T01:17:42;14.98;;;11.55;;
85011;SDS011;75336;42.142;21.732;2024-03-02T01:20:10;16.80;;;10.73;;
85011;SDS011;75336;42.142;21.732;2024-03-02T01:22:37;18.30;;;12.82;;
85011;SDS011;75336;42.142;21.732;2024-03-02T01:25:05;19.52;;;13.38;;
85011;SDS011;75336;42.142;21.732;2024-03-02T01:27:31;21.75;;;13.95;;
85011;SDS011;75336;42.142;21.732;2024-03-02T01:29:58;17.67;;;13.77;;
85011;SDS011;75336;42.142;21.732;2024-03-02T01:32:25;20.42;;;14.85;;
85011;SDS011;75336;42.142;21.732;2024-03-02T01:34:51;20.38;;;14.30;;
85011;SDS011;75336;42.142;21.732;2024-03-02T01:37:20;22.55;;;15.32;;
85011;SDS011;75336;42.142;21.732;2024-03-02T01:39:46;25.20;;;16.40;;
85011;SDS011;75336;42.142;21.732;2024-03-02T01:42:12;21.48;;;16.40;;
85011;SDS011;75336;42.142;21.732;2024-03-02T01:44:39;23.30;;;15.65;;
85011;SDS011;75336;42.142;21.732;2024-03-02T01:47:05;24.45;;;18.05;;
85011;SDS011;75336;42.142;21.732;2024-03-02T01:49:32;28.88;;;18.70;;
85011;SDS011;75336;42.142;21.732;2024-03-02T01:51:59;24.13;;;17.48;;
85011;SDS011;75336;42.142;21.732;2024-03-02T01:54:25;25.77;;;17.00;;
85011;SDS011;75336;42.142;21.732;2024-03-02T01:56:51;20.13;;;14.85;;
85011;SDS011;75336;42.142;21.732;2024-03-02T01:59:18;25.90;;;17.15;;
85011;SDS011;75336;42.142;21.732;2024-03-02T02:01:44;22.00;;;15.63;;
85011;SDS011;75336;42.142;21.732;2024-03-02T02:04:10;18.65;;;12.35;;
85011;SDS011;75336;42.142;21.732;2024-03-02T02:06:36;18.67;;;12.80;;
85011;SDS011;75336;42.142;21.732;2024-03-02T02:09:05;18.05;;;10.98;;
85011;SDS011;75336;42.142;21.732;2024-03-02T02:11:33;13.98;;;10.35;;
85011;SDS011;75336;42.142;21.732;2024-03-02T02:13:59;13.95;;;11.15;;
85011;SDS011;75336;42.142;21.732;2024-03-02T02:16:28;18.27;;;13.38;;
85011;SDS011;75336;42.142;21.732;2024-03-02T02:18:54;21.35;;;16.40;;
85011;SDS011;75336;42.142;21.732;2024-03-02T02:21:23;23.20;;;16.08;;
85011;SDS011;75336;42.142;21.732;2024-03-02T02:23:52;31.25;;;20.92;;
85011;SDS011;75336;42.142;21.732;2024-03-02T02:26:18;25.60;;;20.02;;
85011;SDS011;75336;42.142;21.732;2024-03-02T02:28:45;24.88;;;17.17;;
85011;SDS011;75336;42.142;21.732;2024-03-02T02:31:14;22.92;;;17.08;;
85011;SDS011;75336;42.142;21.732;2024-03-02T02:33:40;24.27;;;17.17;;
85011;SDS011;75336;42.142;21.732;2024-03-02T02:36:06;26.25;;;17.30;;
85011;SDS011;75336;42.142;21.732;2024-03-02T02:38:35;21.75;;;15.10;;
85011;SDS011;75336;42.142;21.732;2024-03-02T02:41:02;22.00;;;14.80;;
85011;SDS011;75336;42.142;21.732;2024-03-02T02:43:28;27.55;;;16.98;;
85011;SDS011;75336;42.142;21.732;2024-03-02T02:45:54;22.00;;;14.93;;
85011;SDS011;75336;42.142;21.732;2024-03-02T02:48:20;21.85;;;15.75;;
85011;SDS011;75336;42.142;21.732;2024-03-02T02:50:46;20.58;;;16.48;;
85011;SDS011;75336;42.142;21.732;2024-03-02T02:53:13;22.33;;;15.43;;
85011;SDS011;75336;42.142;21.732;2024-03-02T02:55:39;20.85;;;14.27;;
85011;SDS011;75336;42.142;21.732;2024-03-02T02:58:08;21.08;;;15.50;;
85011;SDS011;75336;42.142;21.732;2024-03-02T03:00:34;24.70;;;15.95;;
85011;SDS011;75336;42.142;21.732;2024-03-02T03:03:01;23.83;;;15.40;;
85011;SDS011;75336;42.142;21.732;2024-03-02T03:05:27;21.83;;;15.93;;
85011;SDS011;75336;42.142;21.732;2024-03-02T03:07:54;21.60;;;16.38;;
85011;SDS011;75336;42.142;21.732;2024-03-02T03:10:20;21.98;;;14.77;;
85011;SDS011;75336;42.142;21.732;2024-03-02T03:12:48;18.20;;;13.98;;
85011;SDS011;75336;42.142;21.732;2024-03-02T03:15:14;20.42;;;15.00;;
85011;SDS011;75336;42.142;21.732;2024-03-02T03:17:43;21.27;;;14.57;;
85011;SDS011;75336;42.142;21.732;2024-03-02T03:20:12;24.60;;;16.05;;
85011;SDS011;75336;42.142;21.732;2024-03-02T03:22:40;23.25;;;15.93;;
85011;SDS011;75336;42.142;21.732;2024-03-02T03:25:08;23.52;;;16.67;;
85011;SDS011;75336;42.142;21.732;2024-03-02T03:27:34;20.20;;;16.35;;
85011;SDS011;75336;42.142;21.732;2024-03-02T03:30:03;22.05;;;16.05;;
85011;SDS011;75336;42.142;21.732;2024-03-02T03:32:31;23.00;;;15.98;;
85011;SDS011;75336;42.142;21.732;2024-03-02T03:34:57;23.08;;;15.18;;
85011;SDS011;75336;42.142;21.732;2024-03-02T03:37:26;24.67;;;16.63;;
85011;SDS011;75336;42.142;21.732;2024-03-02T03:39:57;24.90;;;15.45;;
85011;SDS011;75336;42.142;21.732;2024-03-02T03:42:24;25.55;;;17.35;;
85011;SDS011;75336;42.142;21.732;2024-03-02T03:44:50;21.67;;;15.55;;
85011;SDS011;75336;42.142;21.732;2024-03-02T03:47:16;29.75;;;19.73;;
85011;SDS011;75336;42.142;21.732;2024-03-02T03:49:42;21.63;;;17.25;;
85011;SDS011;75336;42.142;21.732;2024-03-02T03:52:08;23.75;;;17.50;;
85011;SDS011;75336;42.142;21.732;2024-03-02T03:54:34;21.55;;;14.55;;
85011;SDS011;75336;42.142;21.732;2024-03-02T03:59:28;19.58;;;15.23;;
85011;SDS011;75336;42.142;21.732;2024-03-02T04:02:02;20.45;;;15.45;;
85011;SDS011;75336;42.142;21.732;2024-03-02T04:04:28;23.08;;;16.00;;
85011;SDS011;75336;42.142;21.732;2024-03-02T04:06:56;21.88;;;15.57;;
85011;SDS011;75336;42.142;21.732;2024-03-02T04:09:23;21.58;;;15.40;;
85011;SDS011;75336;42.142;21.732;2024-03-02T04:11:49;25.63;;;15.82;;
85011;SDS011;75336;42.142;21.732;2024-03-02T04:14:15;40.33;;;24.50;;
85011;SDS011;75336;42.142;21.732;2024-03-02T04:16:41;35.78;;;22.42;;
85011;SDS011;75336;42.142;21.732;2024-03-02T04:19:08;30.30;;;21.30;;
85011;SDS011;75336;42.142;21.732;2024-03-02T04:21:34;28.55;;;20.13;;
85011;SDS011;75336;42.142;21.732;2024-03-02T04:24:03;29.27;;;20.23;;
85011;SDS011;75336;42.142;21.732;2024-03-02T04:26:29;23.50;;;17.00;;
85011;SDS011;75336;42.142;21.732;2024-03-02T04:28:56;20.27;;;15.45;;
85011;SDS011;75336;42.142;21.732;2024-03-02T04:31:22;21.40;;;16.58;;
85011;SDS011;75336;42.142;21.732;2024-03-02T04:33:48;24.92;;;17.65;;
85011;SDS011;75336;42.142;21.732;2024-03-02T04:36:15;28.23;;;18.73;;
85011;SDS011;75336;42.142;21.732;2024-03-02T04:38:42;22.00;;;16.58;;
85011;SDS011;75336;42.142;21.732;2024-03-02T04:41:08;27.58;;;18.80;;
85011;SDS011;75336;42.142;21.732;2024-03-02T04:43:35;33.80;;;21.45;;
85011;SDS011;75336;42.142;21.732;2024-03-02T04:46:01;27.23;;;17.80;;
85011;SDS011;75336;42.142;21.732;2024-03-02T04:48:27;28.38;;;20.13;;
85011;SDS011;75336;42.142;21.732;2024-03-02T04:50:54;26.45;;;18.33;;
85011;SDS011;75336;42.142;21.732;2024-03-02T04:53:20;29.17;;;19.98;;
85011;SDS011;75336;42.142;21.732;2024-03-02T04:55:46;29.60;;;19.52;;
85011;SDS011;75336;42.142;21.732;2024-03-02T04:58:31;30.77;;;21.08;;
85011;SDS011;75336;42.142;21.732;2024-03-02T05:00:58;28.27;;;19.10;;
85011;SDS011;75336;42.142;21.732;2024-03-02T05:03:24;26.73;;;19.65;;
85011;SDS011;75336;42.142;21.732;2024-03-02T05:05:51;29.38;;;20.23;;
85011;SDS011;75336;42.142;21.732;2024-03-02T05:08:17;48.03;;;28.02;;
85011;SDS011;75336;42.142;21.732;2024-03-02T05:10:43;32.45;;;22.40;;
85011;SDS011;75336;42.142;21.732;2024-03-02T05:13:10;33.45;;;22.15;;
85011;SDS011;75336;42.142;21.732;2024-03-02T05:15:36;30.13;;;20.35;;
85011;SDS011;75336;42.142;21.732;2024-03-02T05:18:03;29.20;;;21.77;;
85011;SDS011;75336;42.142;21.732;2024-03-02T05:20:30;36.35;;;24.20;;
85011;SDS011;75336;42.142;21.732;2024-03-02T05:22:57;34.13;;;23.08;;
85011;SDS011;75336;42.142;21.732;2024-03-02T05:25:23;31.67;;;22.92;;
85011;SDS011;75336;42.142;21.732;2024-03-02T05:27:50;31.00;;;22.17;;
85011;SDS011;75336;42.142;21.732;2024-03-02T05:30:16;34.67;;;23.23;;
85011;SDS011;75336;42.142;21.732;2024-03-02T05:32:43;34.55;;;24.05;;
85011;SDS011;75336;42.142;21.732;2024-03-02T05:35:09;31.35;;;22.67;;
85011;SDS011;75336;42.142;21.732;2024-03-02T05:37:37;31.77;;;23.00;;
85011;SDS011;75336;42.142;21.732;2024-03-02T05:40:04;36.33;;;24.45;;
85011;SDS011;75336;42.142;21.732;2024-03-02T05:42:31;31.75;;;23.83;;
85011;SDS011;75336;42.142;21.732;2024-03-02T05:44:58;33.17;;;23.55;;
85011;SDS011;75336;42.142;21.732;2024-03-02T05:47:24;35.03;;;23.67;;
85011;SDS011;75336;42.142;21.732;2024-03-02T05:49:51;39.08;;;24.92;;
85011;SDS011;75336;42.142;21.732;2024-03-02T05:52:17;39.30;;;25.95;;
85011;SDS011;75336;42.142;21.732;2024-03-02T05:54:44;37.80;;;25.27;;
85011;SDS011;75336;42.142;21.732;2024-03-02T05:57:10;35.13;;;24.10;;
85011;SDS011;75336;42.142;21.732;2024-03-02T05:59:59;40.00;;;26.35;;
85011;SDS011;75336;42.142;21.732;2024-03-02T06:02:25;43.53;;;30.55;;
85011;SDS011;75336;42.142;21.732;2024-03-02T06:04:53;41.53;;;26.17;;
85011;SDS011;75336;42.142;21.732;2024-03-02T06:07:23;33.20;;;25.55;;
85011;SDS011;75336;42.142;21.732;2024-03-02T06:09:49;32.45;;;20.50;;
85011;SDS011;75336;42.142;21.732;2024-03-02T06:12:17;30.20;;;21.88;;
85011;SDS011;75336;42.142;21.732;2024-03-02T06:14:44;37.08;;;25.00;;
85011;SDS011;75336;42.142;21.732;2024-03-02T06:17:11;36.55;;;24.05;;
85011;SDS011;75336;42.142;21.732;2024-03-02T06:19:37;32.63;;;23.15;;
85011;SDS011;75336;42.142;21.732;2024-03-02T06:22:03;37.03;;;24.48;;
85011;SDS011;75336;42.142;21.732;2024-03-02T06:24:30;28.92;;;22.00;;
85011;SDS011;75336;42.142;21.732;2024-03-02T06:26:57;35.45;;;23.65;;
85011;SDS011;75336;42.142;21.732;2024-03-02T06:29:23;33.85;;;24.77;;
85011;SDS011;75336;42.142;21.732;2024-03-02T06:31:50;28.00;;;21.10;;
85011;SDS011;75336;42.142;21.732;2024-03-02T06:34:17;30.85;;;22.52;;
85011;SDS011;75336;42.142;21.732;2024-03-02T06:36:43;29.83;;;23.80;;
85011;SDS011;75336;42.142;21.732;2024-03-02T06:39:10;38.78;;;27.67;;
85011;SDS011;75336;42.142;21.732;2024-03-02T06:41:37;49.78;;;34.30;;
85011;SDS011;75336;42.142;21.732;2024-03-02T06:44:04;26.77;;;20.17;;
85011;SDS011;75336;42.142;21.732;2024-03-02T06:46:31;25.35;;;18.48;;
85011;SDS011;75336;42.142;21.732;2024-03-02T06:48:58;28.60;;;23.90;;
85011;SDS011;75336;42.142;21.732;2024-03-02T06:51:24;25.52;;;19.95;;
85011;SDS011;75336;42.142;21.732;2024-03-02T06:53:51;25.20;;;17.25;;
85011;SDS011;75336;42.142;21.732;2024-03-02T06:56:18;21.60;;;16.23;;
85011;SDS011;75336;42.142;21.732;2024-03-02T06:58:44;31.85;;;25.35;;
85011;SDS011;75336;42.142;21.732;2024-03-02T07:01:10;49.47;;;32.50;;
85011;SDS011;75336;42.142;21.732;2024-03-02T07:03:37;86.13;;;50.28;;
85011;SDS011;75336;42.142;21.732;2024-03-02T07:06:05;43.35;;;26.60;;
85011;SDS011;75336;42.142;21.732;2024-03-02T07:08:31;68.28;;;40.17;;
85011;SDS011;75336;42.142;21.732;2024-03-02T07:10:58;39.38;;;30.00;;
85011;SDS011;75336;42.142;21.732;2024-03-02T07:13:24;26.65;;;22.30;;
85011;SDS011;75336;42.142;21.732;2024-03-02T07:15:51;18.05;;;14.60;;
85011;SDS011;75336;42.142;21.732;2024-03-02T07:18:30;20.08;;;15.82;;
85011;SDS011;75336;42.142;21.732;2024-03-02T07:21:03;23.40;;;16.58;;
85011;SDS011;75336;42.142;21.732;2024-03-02T07:23:30;19.85;;;15.00;;
85011;SDS011;75336;42.142;21.732;2024-03-02T07:25:57;19.30;;;15.43;;
85011;SDS011;75336;42.142;21.732;2024-03-02T07:28:28;21.58;;;16.42;;
85011;SDS011;75336;42.142;21.732;2024-03-02T07:30:58;19.65;;;15.18;;
85011;SDS011;75336;42.142;21.732;2024-03-02T07:33:25;20.85;;;15.32;;
85011;SDS011;75336;42.142;21.732;2024-03-02T07:35:51;28.42;;;21.52;;
85011;SDS011;75336;42.142;21.732;2024-03-02T07:38:18;20.17;;;15.23;;
85011;SDS011;75336;42.142;21.732;2024-03-02T07:40:45;24.40;;;17.35;;
85011;SDS011;75336;42.142;21.732;2024-03-02T07:43:11;19.75;;;15.18;;
85011;SDS011;75336;42.142;21.732;2024-03-02T07:45:38;51.42;;;46.33;;
85011;SDS011;75336;42.142;21.732;2024-03-02T07:48:04;24.67;;;20.30;;
85011;SDS011;75336;42.142;21.732;2024-03-02T07:50:31;24.48;;;18.25;;
85011;SDS011;75336;42.142;21.732;2024-03-02T07:53:00;27.45;;;23.27;;
85011;SDS011;75336;42.142;21.732;2024-03-02T07:55:27;19.45;;;16.15;;
85011;SDS011;75336;42.142;21.732;2024-03-02T07:57:53;23.48;;;16.48;;
85011;SDS011;75336;42.142;21.732;2024-03-02T08:00:20;20.00;;;15.38;;
85011;SDS011;75336;42.142;21.732;2024-03-02T08:02:47;16.05;;;11.35;;
85011;SDS011;75336;42.142;21.732;2024-03-02T08:05:13;15.15;;;11.90;;
85011;SDS011;75336;42.142;21.732;2024-03-02T08:07:40;17.20;;;13.52;;
85011;SDS011;75336;42.142;21.732;2024-03-02T08:10:09;12.98;;;11.57;;
85011;SDS011;75336;42.142;21.732;2024-03-02T08:12:35;11.93;;;10.27;;
85011;SDS011;75336;42.142;21.732;2024-03-02T08:15:01;16.25;;;12.85;;
85011;SDS011;75336;42.142;21.732;2024-03-02T08:17:28;24.35;;;21.73;;
85011;SDS011;75336;42.142;21.732;2024-03-02T08:19:54;14.50;;;9.35;;
85011;SDS011;75336;42.142;21.732;2024-03-02T08:22:20;10.60;;;9.40;;
85011;SDS011;75336;42.142;21.732;2024-03-02T08:24:46;13.57;;;9.35;;
85011;SDS011;75336;42.142;21.732;2024-03-02T08:27:12;28.88;;;21.15;;
85011;SDS011;75336;42.142;21.732;2024-03-02T08:29:47;14.63;;;12.25;;
85011;SDS011;75336;42.142;21.732;2024-03-02T08:32:13;13.75;;;10.77;;
85011;SDS011;75336;42.142;21.732;2024-03-02T08:34:40;11.30;;;6.97;;
85011;SDS011;75336;42.142;21.732;2024-03-02T08:37:06;10.32;;;7.53;;
85011;SDS011;75336;42.142;21.732;2024-03-02T08:39:32;10.75;;;9.57;;
85011;SDS011;75336;42.142;21.732;2024-03-02T08:41:58;8.13;;;6.80;;
85011;SDS011;75336;42.142;21.732;2024-03-02T08:44:24;9.80;;;7.38;;
